Time;durP1;ratioP1;P1;durP2;ratioP2;P2;SDS_P1;SDS_P2;PMS_P1;PMS_P2;Temp;Humidity;BMP_temperature;BMP_pressure;BME280_temperature;BME280_humidity;BME280_pressure;Samples;Min_cycle;Max_cycle;Signal;HPM_P1;HPM_P2
2023/05/16 05:53:26;;;;;;;;;;;;;;;16.09;61.70;96435.00;4283016;27;10153;-66
2023/05/16 05:55:29;;;;;;;;;;;;;;;16.47;61.11;96441.59;4266560;27;5698;-65
2023/05/16 05:57:32;;;;;;;;;;;;;;;16.74;60.74;96436.50;4255430;27;5656;-65
2023/05/16 05:59:35;;;;;;;;;;;;;;;16.94;60.40;96436.03;4255696;27;5727;-65
2023/05/16 06:01:38;;;;;;;;;;;;;;;17.11;60.04;96429.66;4265046;27;5843;-65
2023/05/16 06:03:41;;;;;;;;;;;;;;;17.25;59.60;96434.66;4259454;27;5769;-65
2023/05/16 06:05:44;;;;;;;;;;;;;;;17.36;59.75;96433.78;4256955;27;5138;-65
2023/05/16 06:07:47;;;;;;;;;;;;;;;17.46;59.27;96437.41;4259106;27;7679;-65
2023/05/16 06:09:51;;;;;;;;;;;;;;;17.57;59.10;96432.22;4264549;27;5698;-67
2023/05/16 06:11:54;;;;;;;;;;;;;;;17.69;58.90;96436.41;4264280;27;5597;-66
2023/05/16 06:13:57;;;;;;;;;;;;;;;17.79;58.56;96441.09;4264578;27;5755;-67
2023/05/16 06:16:00;;;;;;;;;;;;;;;17.72;58.38;96440.47;4260501;27;5839;-66
2023/05/16 06:18:03;;;;;;;;;;;;;;;17.61;58.34;96427.97;4262967;27;5835;-66
2023/05/16 06:20:08;;;;;;;;;;;;;;;17.61;58.55;96425.31;4265190;27;8412;-66
2023/05/16 06:22:11;;;;;;;;;;;;;;;17.66;58.30;96438.72;4254396;27;5637;-66
2023/05/16 06:24:13;;;;;;;;;;;;;;;17.62;58.16;96430.41;4248531;27;5735;-65
2023/05/16 06:26:18;;;;;;;;;;;;;;;17.56;58.30;96438.59;4247613;27;5656;-66
2023/05/16 06:28:21;;;;;;;;;;;;;;;17.53;58.11;96439.88;4265355;27;5777;-66
2023/05/16 06:30:23;;;;;;;;;;;;;;;17.50;58.08;96439.56;4265531;27;5627;-66
2023/05/16 06:32:26;;;;;;;;;;;;;;;17.48;58.04;96426.47;4265400;27;5646;-65
2023/05/16 06:34:31;;;;;;;;;;;;;;;17.50;57.96;96434.22;4265108;27;5644;-65
2023/05/16 06:36:33;;;;;;;;;;;;;;;17.55;57.87;96431.63;4258106;27;5769;-66
2023/05/16 06:38:36;;;;;;;;;;;;;;;17.63;57.64;96425.84;4248362;27;5702;-66
2023/05/16 06:40:39;;;;;;;;;;;;;;;17.58;57.52;96436.50;4248623;27;5649;-66
2023/05/16 06:42:43;;;;;;;;;;;;;;;17.60;57.50;96421.00;4263636;27;6691;-65
2023/05/16 06:44:46;;;;;;;;;;;;;;;17.62;57.22;96427.72;4256066;27;5661;-65
2023/05/16 06:46:49;;;;;;;;;;;;;;;17.61;57.26;96422.63;4260494;27;5644;-65
2023/05/16 06:48:52;;;;;;;;;;;;;;;17.61;57.01;96417.28;4259495;27;5751;-65
2023/05/16 06:50:56;;;;;;;;;;;;;;;17.63;56.91;96445.38;4247783;27;5649;-65
2023/05/16 06:52:59;;;;;;;;;;;;;;;17.56;56.96;96438.59;4249497;27;5855;-65
2023/05/16 06:55:03;;;;;;;;;;;;;;;17.51;56.76;96427.84;4253792;27;5645;-65
2023/05/16 06:57:07;;;;;;;;;;;;;;;17.50;56.76;96434.22;4253608;27;5834;-65
2023/05/16 06:59:11;;;;;;;;;;;;;;;17.53;56.71;96434.53;4253602;27;5635;-66
2023/05/16 07:01:14;;;;;;;;;;;;;;;17.55;56.42;96443.13;4253713;27;5648;-66
2023/05/16 07:03:17;;;;;;;;;;;;;;;17.51;56.38;96441.19;4252422;27;5768;-65
2023/05/16 07:05:21;;;;;;;;;;;;;;;17.53;56.49;96441.75;4248902;27;5623;-66
2023/05/16 07:07:24;;;;;;;;;;;;;;;17.61;56.24;96447.50;4248173;27;5813;-66
2023/05/16 07:09:27;;;;;;;;;;;;;;;17.63;56.11;96433.88;4236401;28;5641;-65
2023/05/16 07:11:30;;;;;;;;;;;;;;;17.68;56.15;96432.09;4235005;28;5767;-67
2023/05/16 07:13:33;;;;;;;;;;;;;;;17.71;55.91;96441.50;4236012;28;5095;-66
2023/05/16 07:15:39;;;;;;;;;;;;;;;17.75;55.81;96434.59;4238925;27;5759;-66
2023/05/16 07:17:42;;;;;;;;;;;;;;;17.82;55.74;96442.47;4253115;27;5808;-66
2023/05/16 07:19:45;;;;;;;;;;;;;;;17.82;55.98;96445.94;4252327;27;5622;-66
2023/05/16 07:21:48;;;;;;;;;;;;;;;17.81;55.58;96444.34;4252466;27;5627;-66
2023/05/16 07:23:53;;;;;;;;;;;;;;;17.80;55.45;96453.41;4236112;28;5777;-66
2023/05/16 07:25:56;;;;;;;;;;;;;;;17.68;55.44;96458.03;4235395;28;5724;-66
2023/05/16 07:27:59;;;;;;;;;;;;;;;17.64;55.49;96459.56;4241334;27;5710;-66
2023/05/16 07:30:02;;;;;;;;;;;;;;;17.56;55.49;96470.69;4236149;28;5676;-66
2023/05/16 07:32:08;;;;;;;;;;;;;;;17.50;55.66;96461.75;4235772;27;6111;-65
2023/05/16 07:34:11;;;;;;;;;;;;;;;17.43;55.60;96455.75;4250499;27;5663;-66
2023/05/16 07:36:14;;;;;;;;;;;;;;;17.43;55.52;96461.13;4251397;27;5715;-66
2023/05/16 07:38:21;;;;;;;;;;;;;;;17.36;55.41;96452.47;4248075;27;5620;-66
2023/05/16 07:40:28;;;;;;;;;;;;;;;17.34;55.48;96455.38;4253188;27;5749;-66
2023/05/16 07:42:31;;;;;;;;;;;;;;;17.43;55.34;96459.25;4251669;27;5715;-66
2023/05/16 07:44:34;;;;;;;;;;;;;;;17.52;55.32;96453.50;4252740;27;5706;-66
2023/05/16 07:46:38;;;;;;;;;;;;;;;17.59;55.18;96454.97;4252483;27;6401;-65
2023/05/16 07:48:42;;;;;;;;;;;;;;;17.65;55.04;96453.97;4252832;27;5632;-66
2023/05/16 07:50:45;;;;;;;;;;;;;;;17.67;55.12;96461.75;4246000;27;5741;-66
2023/05/16 07:52:48;;;;;;;;;;;;;;;17.67;54.86;96464.44;4248482;27;5623;-67
2023/05/16 07:54:52;;;;;;;;;;;;;;;17.67;54.94;96469.78;4235158;27;6496;-67
2023/05/16 07:56:55;;;;;;;;;;;;;;;17.62;54.83;96459.81;4243939;27;6623;-66
2023/05/16 07:58:58;;;;;;;;;;;;;;;17.56;54.90;96470.69;4251142;27;6452;-67
2023/05/16 08:01:04;;;;;;;;;;;;;;;17.51;54.96;96465.25;4236161;27;5813;-73
2023/05/16 08:03:07;;;;;;;;;;;;;;;17.45;55.02;96467.84;4249488;27;5620;-75
2023/05/16 08:05:11;;;;;;;;;;;;;;;17.41;54.83;96471.25;4251538;27;5722;-73
2023/05/16 08:07:14;;;;;;;;;;;;;;;17.41;55.06;96469.38;4240222;27;5645;-66
2023/05/16 08:09:18;;;;;;;;;;;;;;;17.46;54.82;96476.69;4243410;27;5620;-66
2023/05/16 08:11:22;;;;;;;;;;;;;;;17.40;55.08;96477.63;4248254;27;5665;-66
2023/05/16 08:13:25;;;;;;;;;;;;;;;17.42;54.96;96483.53;4235070;28;5844;-66
2023/05/16 08:15:28;;;;;;;;;;;;;;;17.22;55.18;96476.03;4240782;27;6484;-68
2023/05/16 08:17:33;;;;;;;;;;;;;;;17.01;55.45;96484.75;4244941;27;5746;-67
2023/05/16 08:19:36;;;;;;;;;;;;;;;16.96;55.80;96473.97;4251646;27;5710;-66
2023/05/16 08:21:43;;;;;;;;;;;;;;;16.91;56.29;96473.91;4243690;27;6412;-67
2023/05/16 08:23:46;;;;;;;;;;;;;;;16.93;56.30;96474.47;4247265;27;5619;-67
2023/05/16 08:25:49;;;;;;;;;;;;;;;16.88;56.51;96478.69;4244695;27;5657;-66
2023/05/16 08:27:52;;;;;;;;;;;;;;;16.87;56.70;96485.06;4247786;27;5647;-67
2023/05/16 08:29:55;;;;;;;;;;;;;;;16.81;56.89;96486.00;4251001;27;5631;-67
2023/05/16 08:31:58;;;;;;;;;;;;;;;16.73;57.14;96481.06;4251900;27;5703;-67
2023/05/16 08:34:05;;;;;;;;;;;;;;;16.72;57.23;96482.09;4251590;27;5744;-67
2023/05/16 08:36:09;;;;;;;;;;;;;;;16.70;57.12;96494.06;4245241;27;5743;-67
2023/05/16 08:38:14;;;;;;;;;;;;;;;16.60;57.23;96484.81;4241576;27;5735;-67
2023/05/16 08:40:18;;;;;;;;;;;;;;;16.56;57.46;96480.19;4249068;27;6120;-67
2023/05/16 08:42:21;;;;;;;;;;;;;;;16.54;57.44;96477.75;4251829;27;6462;-67
2023/05/16 08:44:28;;;;;;;;;;;;;;;16.50;57.53;96487.28;4251645;27;5612;-67
2023/05/16 08:46:34;;;;;;;;;;;;;;;16.51;57.57;96485.41;4249796;27;5707;-67
2023/05/16 08:48:42;;;;;;;;;;;;;;;16.52;57.58;96495.84;4251283;27;5916;-67
2023/05/16 08:50:45;;;;;;;;;;;;;;;16.51;57.73;96488.09;4242852;27;6321;-67
2023/05/16 08:52:52;;;;;;;;;;;;;;;16.51;57.59;96488.88;4239099;27;5617;-67
2023/05/16 08:54:57;;;;;;;;;;;;;;;16.54;57.53;96491.09;4234540;27;5838;-67
2023/05/16 08:57:14;;;;;;;;;;;;;;;16.51;57.82;96504.91;4234358;28;5645;-67
2023/05/16 08:59:19;;;;;;;;;;;;;;;16.36;57.76;96501.13;4241069;27;6519;-67
2023/05/16 09:01:22;;;;;;;;;;;;;;;16.10;57.88;96505.94;4251563;27;5743;-67
2023/05/16 09:03:27;;;;;;;;;;;;;;;15.96;58.28;96509.88;4251194;27;5737;-67
2023/05/16 09:05:33;;;;;;;;;;;;;;;15.85;58.66;96513.38;4251377;27;5639;-67
2023/05/16 09:07:37;;;;;;;;;;;;;;;15.72;59.10;96509.09;4251207;27;5808;-67
2023/05/16 09:09:40;;;;;;;;;;;;;;;15.62;59.22;96509.69;4251395;27;5640;-67
2023/05/16 09:11:44;;;;;;;;;;;;;;;15.54;59.31;96502.03;4251635;27;5059;-67
2023/05/16 09:13:47;;;;;;;;;;;;;;;15.54;59.61;96512.69;4251119;27;7667;-67
2023/05/16 09:16:08;;;;;;;;;;;;;;;15.53;59.93;96511.06;4250866;27;6323;-66
2023/05/16 09:18:13;;;;;;;;;;;;;;;15.54;60.25;96512.69;4245580;27;5838;-67
2023/05/16 09:20:18;;;;;;;;;;;;;;;15.55;60.11;96521.47;4245927;27;5904;-66
2023/05/16 09:22:24;;;;;;;;;;;;;;;15.47;60.50;96511.16;4232197;27;6591;-65
2023/05/16 09:24:30;;;;;;;;;;;;;;;15.54;60.64;96511.88;4237790;27;5661;-66
2023/05/16 09:26:33;;;;;;;;;;;;;;;15.56;60.58;96507.94;4248982;27;5703;-66
2023/05/16 09:28:39;;;;;;;;;;;;;;;15.62;60.80;96503.53;4247433;27;5775;-65
2023/05/16 09:30:47;;;;;;;;;;;;;;;15.65;60.62;96503.91;4249554;27;5620;-65
2023/05/16 09:32:53;;;;;;;;;;;;;;;15.68;60.59;96497.28;4249825;27;5619;-66
2023/05/16 09:34:57;;;;;;;;;;;;;;;15.69;60.65;96497.06;4248933;27;5695;-65
2023/05/16 09:37:05;;;;;;;;;;;;;;;15.68;60.76;96495.44;4248932;27;5711;-66
2023/05/16 09:39:08;;;;;;;;;;;;;;;15.73;60.93;96484.88;4249120;27;5862;-66
2023/05/16 09:41:13;;;;;;;;;;;;;;;15.77;60.67;96489.75;4248889;27;5746;-67
2023/05/16 09:43:17;;;;;;;;;;;;;;;15.86;60.67;96504.38;4248788;27;5624;-66
2023/05/16 09:45:22;;;;;;;;;;;;;;;15.88;60.62;96491.63;4241490;27;5718;-66
2023/05/16 09:47:28;;;;;;;;;;;;;;;15.91;60.60;96491.94;4245885;27;5637;-65
2023/05/16 09:49:31;;;;;;;;;;;;;;;15.93;60.53;96491.72;4249126;27;5754;-65
2023/05/16 09:51:34;;;;;;;;;;;;;;;15.95;60.71;96494.94;4249633;27;5783;-66
2023/05/16 09:53:38;;;;;;;;;;;;;;;16.03;60.52;96497.25;4250208;27;5608;-66
2023/05/16 09:55:42;;;;;;;;;;;;;;;16.06;60.39;96515.44;4248782;27;5585;-66
2023/05/16 09:57:46;;;;;;;;;;;;;;;16.07;60.23;96501.06;4250018;27;5787;-66
2023/05/16 09:59:50;;;;;;;;;;;;;;;16.13;60.01;96507.34;4247841;27;5714;-66
2023/05/16 10:01:55;;;;;;;;;;;;;;;16.17;59.89;96506.63;4249115;27;5711;-66
2023/05/16 10:03:58;;;;;;;;;;;;;;;16.17;59.58;96503.94;4246521;27;6428;-65
2023/05/16 10:06:02;;;;;;;;;;;;;;;16.21;59.55;96506.97;4249673;27;6340;-65
2023/05/16 10:08:09;;;;;;;;;;;;;;;16.26;59.50;96510.53;4250197;27;5875;-65
2023/05/16 10:10:14;;;;;;;;;;;;;;;16.32;59.26;96500.00;4249483;27;5718;-66
2023/05/16 10:12:17;;;;;;;;;;;;;;;16.32;59.24;96498.13;4249855;27;5718;-66
2023/05/16 10:14:22;;;;;;;;;;;;;;;16.39;58.85;96493.47;4236897;27;5737;-65
2023/05/16 10:16:26;;;;;;;;;;;;;;;16.50;58.65;96521.16;4248354;27;5637;-67
2023/05/16 10:18:32;;;;;;;;;;;;;;;16.53;58.62;96504.66;4242557;27;6327;-67
2023/05/16 10:20:35;;;;;;;;;;;;;;;16.58;58.53;96502.09;4247232;27;5758;-67
2023/05/16 10:22:44;;;;;;;;;;;;;;;16.65;58.22;96507.28;4238503;27;5814;-67
2023/05/16 10:24:58;;;;;;;;;;;;;;;16.65;58.05;96509.94;4244537;27;5718;-66
2023/05/16 10:27:02;;;;;;;;;;;;;;;16.69;57.99;96509.28;4232932;27;5736;-67
2023/05/16 10:29:06;;;;;;;;;;;;;;;16.77;57.92;96508.09;4240936;27;5620;-67
2023/05/16 10:31:11;;;;;;;;;;;;;;;16.85;57.85;96497.81;4242820;27;5657;-67
2023/05/16 10:33:15;;;;;;;;;;;;;;;16.85;57.41;96500.50;4248758;27;5802;-67
2023/05/16 10:35:26;;;;;;;;;;;;;;;16.86;57.40;96507.44;4247165;27;6313;-67
2023/05/16 10:37:35;;;;;;;;;;;;;;;16.88;57.15;96501.91;4252874;27;5644;-67
2023/05/16 10:39:39;;;;;;;;;;;;;;;16.89;57.15;96500.84;4248199;27;5841;-67
2023/05/16 10:41:43;;;;;;;;;;;;;;;16.95;56.93;96496.38;4252673;27;5741;-69
2023/05/16 10:43:58;;;;;;;;;;;;;;;16.97;56.75;96504.97;4252491;27;5683;-67
2023/05/16 10:46:04;;;;;;;;;;;;;;;16.99;56.45;96500.19;4251200;27;5710;-66
2023/05/16 10:48:14;;;;;;;;;;;;;;;16.98;56.60;96496.72;4238699;27;5681;-66
2023/05/16 10:50:33;;;;;;;;;;;;;;;17.02;56.37;96502.41;4242961;27;5811;-66
2023/05/16 10:52:36;;;;;;;;;;;;;;;17.01;56.12;96506.13;4244522;27;5775;-66
2023/05/16 10:54:40;;;;;;;;;;;;;;;16.95;55.97;96496.38;4243708;27;5813;-66
2023/05/16 10:56:43;;;;;;;;;;;;;;;16.96;55.99;96498.00;4244808;27;5811;-66
2023/05/16 10:58:47;;;;;;;;;;;;;;;17.01;56.11;96496.25;4248263;27;5627;-66
2023/05/16 11:01:15;;;;;;;;;;;;;;;17.02;55.38;96499.72;4252861;27;5711;-67
2023/05/16 11:03:27;;;;;;;;;;;;;;;16.98;55.35;96506.59;4253450;27;5823;-66
2023/05/16 11:05:32;;;;;;;;;;;;;;;16.95;55.11;96512.41;4246618;27;5691;-66
2023/05/16 11:07:36;;;;;;;;;;;;;;;16.95;54.99;96509.75;4253355;27;5624;-66
2023/05/16 11:09:44;;;;;;;;;;;;;;;16.95;54.90;96501.72;4253596;27;5645;-66
2023/05/16 11:11:54;;;;;;;;;;;;;;;16.92;55.33;96523.56;4242086;27;5859;-66
2023/05/16 11:13:56;;;;;;;;;;;;;;;16.91;54.91;96503.28;4247534;27;5173;-69
2023/05/16 11:16:27;;;;;;;;;;;;;;;16.94;54.93;96510.78;4243476;27;7719;-70
2023/05/16 11:18:32;;;;;;;;;;;;;;;16.95;54.84;96523.09;4238402;27;5645;-69
2023/05/16 11:20:39;;;;;;;;;;;;;;;17.00;54.79;96518.66;4242192;27;5781;-70
2023/05/16 11:22:42;;;;;;;;;;;;;;;17.03;54.51;96520.03;4253105;27;5727;-67
2023/05/16 11:24:58;;;;;;;;;;;;;;;16.99;54.39;96524.22;4249438;27;5620;-67
2023/05/16 11:27:01;;;;;;;;;;;;;;;17.03;54.53;96533.41;4242173;27;6325;-67
2023/05/16 11:29:05;;;;;;;;;;;;;;;17.05;54.33;96521.41;4252858;27;5628;-67
2023/05/16 11:31:09;;;;;;;;;;;;;;;17.04;54.16;96522.47;4250612;27;5628;-67
2023/05/16 11:33:12;;;;;;;;;;;;;;;17.07;54.04;96527.31;4250260;27;5652;-67
2023/05/16 11:35:17;;;;;;;;;;;;;;;17.04;53.97;96521.66;4252493;27;5762;-68
2023/05/16 11:37:21;;;;;;;;;;;;;;;16.93;53.79;96517.19;4246190;27;5637;-68
2023/05/16 11:39:24;;;;;;;;;;;;;;;16.88;53.90;96524.06;4251624;27;5815;-67
2023/05/16 11:41:29;;;;;;;;;;;;;;;16.91;53.78;96528.13;4252139;27;6330;-66
2023/05/16 11:43:38;;;;;;;;;;;;;;;16.98;53.72;96533.28;4249924;27;5764;-66
2023/05/16 11:45:41;;;;;;;;;;;;;;;17.05;53.69;96524.09;4250858;27;5730;-67
2023/05/16 11:47:46;;;;;;;;;;;;;;;17.14;53.55;96527.19;4252552;27;5682;-66
2023/05/16 11:49:49;;;;;;;;;;;;;;;17.21;53.53;96532.34;4250993;27;5713;-67
2023/05/16 11:51:56;;;;;;;;;;;;;;;17.08;53.15;96525.47;4247071;27;5739;-67
2023/05/16 11:54:03;;;;;;;;;;;;;;;17.00;53.20;96526.69;4250022;27;5624;-67
2023/05/16 11:56:08;;;;;;;;;;;;;;;16.99;53.33;96532.22;4252669;27;5675;-66
2023/05/16 11:58:12;;;;;;;;;;;;;;;16.86;53.15;96526.13;4251527;27;5624;-67
2023/05/16 12:00:16;;;;;;;;;;;;;;;16.81;53.22;96518.06;4247267;27;5822;-67
2023/05/16 12:02:20;;;;;;;;;;;;;;;16.81;53.16;96515.38;4244723;27;5611;-67
2023/05/16 12:04:23;;;;;;;;;;;;;;;16.77;52.98;96516.91;4252396;27;5632;-66
2023/05/16 12:06:29;;;;;;;;;;;;;;;16.79;52.96;96519.34;4252200;27;5719;-66
2023/05/16 12:08:33;;;;;;;;;;;;;;;16.77;52.89;96543.63;4250765;27;5734;-67
2023/05/16 12:10:40;;;;;;;;;;;;;;;16.76;52.89;96534.00;4250841;27;5862;-66
2023/05/16 12:12:47;;;;;;;;;;;;;;;16.83;52.78;96525.81;4252036;27;5644;-68
2023/05/16 12:14:50;;;;;;;;;;;;;;;16.86;52.74;96534.16;4251712;27;5102;-67
2023/05/16 12:16:53;;;;;;;;;;;;;;;16.87;52.41;96537.63;4252431;27;5631;-66
2023/05/16 12:18:56;;;;;;;;;;;;;;;16.82;52.60;96525.00;4252030;27;5683;-67
2023/05/16 12:20:59;;;;;;;;;;;;;;;16.85;52.64;96524.53;4245697;27;5755;-68
2023/05/16 12:23:03;;;;;;;;;;;;;;;16.86;52.27;96526.13;4249740;27;5632;-67
2023/05/16 12:25:22;;;;;;;;;;;;;;;16.91;52.28;96511.28;4252152;27;5660;-66
2023/05/16 12:27:27;;;;;;;;;;;;;;;16.99;52.00;96530.41;4244618;27;5628;-66
2023/05/16 12:29:31;;;;;;;;;;;;;;;17.02;51.71;96516.56;4241079;27;5088;-67
2023/05/16 12:31:40;;;;;;;;;;;;;;;17.05;51.84;96510.72;4245682;27;5804;-67
2023/05/16 12:33:45;;;;;;;;;;;;;;;17.07;51.89;96526.50;4252325;27;5730;-67
2023/05/16 12:35:50;;;;;;;;;;;;;;;17.15;51.75;96523.47;4252037;27;5644;-65
2023/05/16 12:37:53;;;;;;;;;;;;;;;17.25;51.63;96539.66;4252125;27;5640;-67
2023/05/16 12:40:00;;;;;;;;;;;;;;;17.34;51.51;96550.78;4245408;27;5608;-66
2023/05/16 12:42:06;;;;;;;;;;;;;;;17.36;51.20;96546.00;4245585;27;5708;-67
2023/05/16 12:44:16;;;;;;;;;;;;;;;17.36;51.13;96536.09;4250914;27;5797;-67
2023/05/16 12:46:20;;;;;;;;;;;;;;;17.38;51.24;96544.69;4242907;27;5635;-67
2023/05/16 12:48:29;;;;;;;;;;;;;;;17.42;51.25;96545.81;4242858;27;6543;-67
2023/05/16 12:50:33;;;;;;;;;;;;;;;17.53;51.24;96556.66;4243943;27;5608;-67
2023/05/16 12:52:36;;;;;;;;;;;;;;;17.49;51.03;96547.53;4250825;27;5616;-67
2023/05/16 12:54:39;;;;;;;;;;;;;;;17.50;50.99;96554.50;4251771;27;5708;-67
2023/05/16 12:56:49;;;;;;;;;;;;;;;17.55;50.80;96575.94;4251566;27;6250;-66
2023/05/16 12:58:52;;;;;;;;;;;;;;;17.51;50.67;96564.13;4247617;27;5709;-68
2023/05/16 13:00:57;;;;;;;;;;;;;;;17.40;50.83;96549.78;4241037;27;8023;-66
2023/05/16 13:03:00;;;;;;;;;;;;;;;17.38;50.79;96550.03;4251488;27;5620;-67
2023/05/16 13:05:09;;;;;;;;;;;;;;;17.42;50.84;96548.47;4251422;27;5774;-72
2023/05/16 13:07:13;;;;;;;;;;;;;;;17.46;50.69;96549.63;4251729;27;5604;-66
2023/05/16 13:09:16;;;;;;;;;;;;;;;17.46;50.63;96559.53;4250634;27;5806;-66
2023/05/16 13:11:22;;;;;;;;;;;;;;;17.35;50.50;96555.88;4233703;27;5653;-67
2023/05/16 13:13:25;;;;;;;;;;;;;;;17.26;50.55;96559.97;4250998;27;5624;-67
2023/05/16 13:15:38;;;;;;;;;;;;;;;17.19;50.47;96561.97;4234441;27;5887;-68
2023/05/16 13:17:43;;;;;;;;;;;;;;;17.18;50.52;96547.81;4246035;27;5638;-67
2023/05/16 13:19:47;;;;;;;;;;;;;;;17.26;50.64;96559.16;4250593;27;5715;-67
2023/05/16 13:21:50;;;;;;;;;;;;;;;17.30;50.52;96558.44;4251354;27;5608;-67
2023/05/16 13:23:53;;;;;;;;;;;;;;;17.37;50.38;96564.44;4247936;27;5623;-67
2023/05/16 13:25:56;;;;;;;;;;;;;;;17.43;50.21;96560.78;4250357;27;5736;-67
2023/05/16 13:28:00;;;;;;;;;;;;;;;17.39;50.29;96562.34;4251318;27;5636;-68
2023/05/16 13:30:06;;;;;;;;;;;;;;;17.38;50.29;96555.38;4251286;27;6472;-68
2023/05/16 13:32:12;;;;;;;;;;;;;;;17.40;50.28;96563.97;4251345;27;5624;-66
2023/05/16 13:34:16;;;;;;;;;;;;;;;17.42;50.38;96566.38;4249557;27;5612;-66
2023/05/16 13:36:19;;;;;;;;;;;;;;;17.48;50.29;96567.28;4242499;27;5697;-67
2023/05/16 13:38:22;;;;;;;;;;;;;;;17.49;50.10;96564.38;4244684;27;5661;-68
2023/05/16 13:40:26;;;;;;;;;;;;;;;17.51;50.06;96572.97;4251082;27;5764;-67
2023/05/16 13:42:29;;;;;;;;;;;;;;;17.54;49.89;96563.63;4250473;27;6297;-67
2023/05/16 13:44:32;;;;;;;;;;;;;;;17.48;49.96;96568.09;4249987;27;5772;-67
2023/05/16 13:46:35;;;;;;;;;;;;;;;17.51;50.04;96569.47;4250607;27;5722;-67
2023/05/16 13:48:38;;;;;;;;;;;;;;;17.57;49.93;96579.22;4250072;27;5850;-67
2023/05/16 13:50:42;;;;;;;;;;;;;;;17.54;49.82;96564.44;4250241;27;5632;-67
2023/05/16 13:52:52;;;;;;;;;;;;;;;17.52;49.86;96571.09;4248481;27;5743;-67
2023/05/16 13:54:54;;;;;;;;;;;;;;;17.54;49.79;96574.31;4250876;27;5617;-66
2023/05/16 13:56:57;;;;;;;;;;;;;;;17.52;49.76;96566.56;4249617;27;5758;-67
2023/05/16 13:59:03;;;;;;;;;;;;;;;17.59;49.78;96579.78;4246078;27;5843;-66
2023/05/16 14:01:09;;;;;;;;;;;;;;;17.63;49.53;96575.56;4245595;27;5636;-68
2023/05/16 14:03:13;;;;;;;;;;;;;;;17.60;49.60;96568.84;4248830;27;5648;-66
2023/05/16 14:05:16;;;;;;;;;;;;;;;17.48;49.40;96580.66;4253810;27;5637;-67
2023/05/16 14:07:21;;;;;;;;;;;;;;;17.38;49.55;96576.75;4245851;27;5628;-67
2023/05/16 14:09:24;;;;;;;;;;;;;;;17.34;49.60;96588.19;4254331;27;5636;-66
2023/05/16 14:11:27;;;;;;;;;;;;;;;17.30;49.45;96577.13;4252549;27;5585;-67
2023/05/16 14:13:31;;;;;;;;;;;;;;;17.27;49.44;96572.28;4241343;27;5676;-67
2023/05/16 14:15:34;;;;;;;;;;;;;;;17.23;49.30;96573.00;4244707;27;5634;-67
2023/05/16 14:17:37;;;;;;;;;;;;;;;17.22;49.57;96574.06;4248402;27;5920;-67
2023/05/16 14:19:40;;;;;;;;;;;;;;;17.28;49.44;96573.91;4254215;27;5620;-68
2023/05/16 14:21:44;;;;;;;;;;;;;;;17.31;49.35;96573.41;4246515;27;5774;-67
2023/05/16 14:23:49;;;;;;;;;;;;;;;17.29;49.33;96567.50;4246048;27;6342;-67
2023/05/16 14:25:52;;;;;;;;;;;;;;;17.28;49.26;96581.09;4241638;27;5624;-67
2023/05/16 14:27:55;;;;;;;;;;;;;;;17.29;49.21;96582.72;4244976;27;5837;-67
2023/05/16 14:29:58;;;;;;;;;;;;;;;17.30;49.36;96579.81;4238190;27;5665;-66
2023/05/16 14:32:01;;;;;;;;;;;;;;;17.35;49.38;96581.78;4245172;27;5683;-67
2023/05/16 14:34:05;;;;;;;;;;;;;;;17.43;49.22;96587.50;4245098;27;5648;-67
2023/05/16 14:36:08;;;;;;;;;;;;;;;17.37;49.18;96587.69;4254072;27;5715;-67
2023/05/16 14:38:11;;;;;;;;;;;;;;;17.31;49.29;96591.31;4241635;27;5116;-67
2023/05/16 14:40:15;;;;;;;;;;;;;;;17.26;49.24;96589.38;4240385;27;5711;-67
2023/05/16 14:42:18;;;;;;;;;;;;;;;17.33;49.34;96589.22;4251240;27;5653;-67
2023/05/16 14:44:23;;;;;;;;;;;;;;;17.36;48.94;96584.19;4250167;27;5644;-67
2023/05/16 14:46:26;;;;;;;;;;;;;;;17.36;49.06;96594.09;4240934;27;5839;-67
2023/05/16 14:48:30;;;;;;;;;;;;;;;17.23;49.04;96589.84;4234471;27;6316;-68
2023/05/16 14:50:33;;;;;;;;;;;;;;;17.20;49.02;96590.31;4245883;27;5731;-67
2023/05/16 14:52:37;;;;;;;;;;;;;;;17.18;48.89;96598.56;4247428;27;5738;-67
2023/05/16 14:54:41;;;;;;;;;;;;;;;17.17;49.09;96588.13;4245667;27;5620;-67
2023/05/16 14:56:46;;;;;;;;;;;;;;;17.16;49.03;96594.53;4241385;27;5843;-68
2023/05/16 14:58:49;;;;;;;;;;;;;;;17.18;49.07;96597.75;4244650;27;5726;-67
2023/05/16 15:00:55;;;;;;;;;;;;;;;17.15;49.03;96588.38;4241918;27;5645;-68
2023/05/16 15:02:59;;;;;;;;;;;;;;;17.10;49.05;96590.13;4244653;27;5849;-67
2023/05/16 15:05:02;;;;;;;;;;;;;;;17.04;48.98;96597.25;4237988;27;7190;-68
2023/05/16 15:07:06;;;;;;;;;;;;;;;17.01;49.04;96592.38;4247623;27;5824;-68
2023/05/16 15:09:10;;;;;;;;;;;;;;;17.05;49.46;96596.19;4245582;27;5615;-67
2023/05/16 15:11:15;;;;;;;;;;;;;;;17.06;49.23;96597.00;4246622;27;5703;-68
2023/05/16 15:13:20;;;;;;;;;;;;;;;17.07;49.10;96590.59;4243913;27;5915;-67
2023/05/16 15:15:25;;;;;;;;;;;;;;;17.06;49.21;96594.34;4248284;27;5616;-68
2023/05/16 15:17:29;;;;;;;;;;;;;;;17.14;49.18;96593.97;4248739;27;5792;-68
2023/05/16 15:19:32;;;;;;;;;;;;;;;17.15;49.14;96596.38;4251068;27;5846;-67
2023/05/16 15:21:35;;;;;;;;;;;;;;;17.21;49.04;96602.63;4238451;27;6430;-67
2023/05/16 15:23:38;;;;;;;;;;;;;;;17.18;49.08;96606.59;4240052;27;5870;-67
2023/05/16 15:25:41;;;;;;;;;;;;;;;17.16;49.14;96606.00;4239521;27;5768;-66
2023/05/16 15:27:44;;;;;;;;;;;;;;;17.15;49.11;96608.94;4237110;27;5844;-67
2023/05/16 15:29:50;;;;;;;;;;;;;;;17.11;49.27;96597.13;4244434;27;5828;-68
2023/05/16 15:31:53;;;;;;;;;;;;;;;17.10;49.17;96604.31;4240290;27;5627;-66
2023/05/16 15:33:57;;;;;;;;;;;;;;;17.18;49.18;96600.44;4245622;27;5629;-67
2023/05/16 15:36:00;;;;;;;;;;;;;;;17.21;48.94;96597.28;4238852;27;5822;-67
2023/05/16 15:38:07;;;;;;;;;;;;;;;17.25;48.99;96605.63;4246023;27;5620;-67
2023/05/16 15:40:12;;;;;;;;;;;;;;;17.18;49.05;96600.44;4245750;27;6198;-67
2023/05/16 15:42:15;;;;;;;;;;;;;;;17.18;49.19;96603.09;4239892;27;5756;-67
2023/05/16 15:44:18;;;;;;;;;;;;;;;17.18;49.18;96603.91;4238916;27;5813;-67
2023/05/16 15:46:22;;;;;;;;;;;;;;;17.23;49.19;96603.22;4242874;27;5759;-66
2023/05/16 15:48:25;;;;;;;;;;;;;;;17.26;49.30;96607.25;4240518;27;5628;-67
2023/05/16 15:50:28;;;;;;;;;;;;;;;17.21;49.24;96605.28;4244244;27;5652;-69
2023/05/16 15:52:35;;;;;;;;;;;;;;;17.17;49.44;96602.28;4247275;27;5730;-66
2023/05/16 15:54:38;;;;;;;;;;;;;;;17.16;49.39;96627.38;4238762;27;5853;-65
2023/05/16 15:56:40;;;;;;;;;;;;;;;17.07;49.44;96620.78;4240285;27;6050;-64
2023/05/16 15:58:45;;;;;;;;;;;;;;;17.00;49.66;96614.00;4243557;27;5811;-65
2023/05/16 16:00:48;;;;;;;;;;;;;;;16.98;49.64;96613.41;4241069;27;5723;-65
2023/05/16 16:02:53;;;;;;;;;;;;;;;16.96;49.79;96623.50;4235917;27;5728;-66
2023/05/16 16:04:56;;;;;;;;;;;;;;;16.96;49.71;96627.00;4239745;27;5855;-66
2023/05/16 16:06:59;;;;;;;;;;;;;;;16.95;49.72;96629.91;4242042;27;6002;-65
2023/05/16 16:09:02;;;;;;;;;;;;;;;16.91;49.74;96616.22;4236609;27;5784;-65
2023/05/16 16:11:05;;;;;;;;;;;;;;;16.83;49.80;96622.72;4244337;27;5706;-65
2023/05/16 16:13:08;;;;;;;;;;;;;;;16.83;49.90;96622.72;4250040;27;5730;-66
2023/05/16 16:15:11;;;;;;;;;;;;;;;16.78;49.81;96630.66;4247801;27;5856;-67
2023/05/16 16:17:15;;;;;;;;;;;;;;;16.59;49.91;96629.16;4240009;27;5632;-66
2023/05/16 16:19:19;;;;;;;;;;;;;;;16.51;50.16;96629.50;4245323;27;5620;-66
2023/05/16 16:21:23;;;;;;;;;;;;;;;16.51;50.17;96634.84;4241700;27;5699;-67
2023/05/16 16:23:26;;;;;;;;;;;;;;;16.46;50.22;96629.41;4248407;27;5672;-66
2023/05/16 16:25:29;;;;;;;;;;;;;;;16.49;50.32;96636.94;4242333;27;5668;-66
2023/05/16 16:27:32;;;;;;;;;;;;;;;16.44;50.36;96629.66;4245593;27;5624;-66
2023/05/16 16:29:35;;;;;;;;;;;;;;;16.40;50.34;96633.00;4244276;27;5636;-65
2023/05/16 16:31:38;;;;;;;;;;;;;;;16.36;50.39;96634.50;4240657;27;5794;-65
2023/05/16 16:33:41;;;;;;;;;;;;;;;16.33;50.34;96624.31;4246118;27;5984;-65
2023/05/16 16:35:46;;;;;;;;;;;;;;;16.24;50.55;96631.84;4244544;27;5804;-66
2023/05/16 16:37:50;;;;;;;;;;;;;;;16.19;50.55;96635.19;4242564;27;5705;-66
2023/05/16 16:40:10;;;;;;;;;;;;;;;16.08;50.81;96630.69;4241743;27;5768;-65
2023/05/16 16:42:12;;;;;;;;;;;;;;;16.11;50.72;96640.09;4232486;27;5069;-64
2023/05/16 16:44:15;;;;;;;;;;;;;;;16.16;50.81;96643.69;4234640;27;5736;-69
2023/05/16 16:46:18;;;;;;;;;;;;;;;16.10;50.55;96660.63;4238739;27;5779;-66
2023/05/16 16:48:21;;;;;;;;;;;;;;;16.03;50.82;96651.91;4235735;27;5722;-65
2023/05/16 16:50:24;;;;;;;;;;;;;;;16.05;51.02;96641.00;4240368;27;5847;-69